CheckWX is a tool to help pilots better visualize weather data.  It is not intended as a substitute for an official pre-flight weather briefing.

15:14:06 UTC

KFWC METAR
Fairfield Municipal Airport
Fairfield, Illinois, USA
Current

19 mins ago

KFWC 261455Z AUTO 00000KT 10SM CLR 26/20 A3005 RMK AO1 T02630203
Observed
May-26 @ 14:55 UTC
Visibility
10 SM
Flight Rules
VFR
Cloud Levels
  • Clear skies
Temperature
26°C / 79°F
Dewpoint
20°C / 68°F
Humidity
70%
Altimeter
30.05" Hg
Pressure
1017.62 hPa
Previous

39 mins ago

KFWC 261435Z AUTO 14003KT 10SM CLR 26/21 A3005 RMK AO1 T02570207
Observed
May-26 @ 14:35 UTC
Wind
  • 140° at 3 KTS
Visibility
10 SM
Flight Rules
VFR
Cloud Levels
  • Clear skies
Temperature
26°C / 79°F
Dewpoint
21°C / 70°F
Humidity
74%
Altimeter
30.05" Hg
Pressure
1017.62 hPa
Previous

59 mins ago

KFWC 261415Z AUTO 00000KT 10SM CLR 25/22 A3004 RMK AO1 T02510215
Observed
May-26 @ 14:15 UTC
Visibility
10 SM
Flight Rules
VFR
Cloud Levels
  • Clear skies
Temperature
25°C / 77°F
Dewpoint
22°C / 72°F
Humidity
83%
Altimeter
30.04" Hg
Pressure
1017.32 hPa